createdAt,value
2018-05-26T00:00:32.190Z,17.00
2018-05-26T00:02:35.556Z,17.00
2018-05-26T00:04:38.891Z,17.00
2018-05-26T00:06:42.248Z,16.90
2018-05-26T00:08:45.637Z,16.90
2018-05-26T00:10:49.756Z,16.90
2018-05-26T00:12:53.149Z,16.90
2018-05-26T00:14:57.255Z,16.90
2018-05-26T00:17:00.618Z,16.90
2018-05-26T00:19:03.991Z,16.90
2018-05-26T00:21:07.331Z,16.90
2018-05-26T00:23:11.485Z,16.80
2018-05-26T00:25:14.866Z,16.80
2018-05-26T00:27:18.206Z,16.90
2018-05-26T00:29:21.583Z,16.80
2018-05-26T00:31:24.927Z,16.80
2018-05-26T00:33:28.306Z,16.80
2018-05-26T00:35:31.699Z,16.80
2018-05-26T00:37:35.082Z,16.80
2018-05-26T00:39:38.488Z,16.70
2018-05-26T00:41:41.820Z,16.80
2018-05-26T00:43:45.211Z,16.70
2018-05-26T00:45:48.575Z,16.60
2018-05-26T00:47:51.970Z,16.50
2018-05-26T00:49:55.308Z,16.40
2018-05-26T00:51:59.463Z,16.30
2018-05-26T00:54:02.860Z,16.30
2018-05-26T00:56:06.204Z,16.20
2018-05-26T00:58:10.361Z,16.20
2018-05-26T01:00:13.754Z,16.20
2018-05-26T01:02:17.153Z,16.20
2018-05-26T01:04:20.544Z,16.30
2018-05-26T01:06:23.928Z,16.20
2018-05-26T01:08:27.303Z,16.30
2018-05-26T01:10:31.438Z,16.30
2018-05-26T01:12:34.834Z,16.30
2018-05-26T01:14:38.254Z,16.30
2018-05-26T01:16:41.617Z,16.20
2018-05-26T01:18:45.006Z,16.20
2018-05-26T01:20:48.458Z,16.20
2018-05-26T01:22:51.818Z,16.10
2018-05-26T01:24:55.189Z,16.20
2018-05-26T01:26:58.566Z,16.20
2018-05-26T01:29:02.718Z,16.10
2018-05-26T01:31:06.857Z,16.10
2018-05-26T01:33:10.976Z,16.00
2018-05-26T01:35:15.129Z,16.10
2018-05-26T01:37:18.520Z,16.00
2018-05-26T01:39:21.913Z,16.00
2018-05-26T01:41:25.264Z,16.00
2018-05-26T01:43:28.629Z,16.00
2018-05-26T01:45:31.966Z,15.90
2018-05-26T01:47:35.301Z,15.90
2018-05-26T01:49:38.674Z,15.90
2018-05-26T01:51:42.113Z,15.90
2018-05-26T01:53:46.281Z,15.90
2018-05-26T01:55:49.685Z,15.80
2018-05-26T01:57:53.096Z,15.80
2018-05-26T01:59:57.255Z,15.80
2018-05-26T02:02:01.013Z,15.80
2018-05-26T02:04:05.169Z,15.70
2018-05-26T02:06:08.524Z,15.70
2018-05-26T02:08:11.878Z,15.70
2018-05-26T02:10:15.257Z,15.70
2018-05-26T02:12:18.590Z,15.70
2018-05-26T02:14:22.752Z,15.60
2018-05-26T02:16:26.090Z,15.60
2018-05-26T02:18:29.436Z,15.60
2018-05-26T02:20:32.832Z,15.60
2018-05-26T02:22:36.182Z,15.60
2018-05-26T02:24:39.577Z,15.50
2018-05-26T02:26:42.961Z,15.40
2018-05-26T02:28:47.064Z,15.40
2018-05-26T02:30:51.223Z,15.40
2018-05-26T02:32:54.574Z,15.30
2018-05-26T02:34:58.739Z,15.30
2018-05-26T02:37:02.087Z,15.30
2018-05-26T02:39:05.465Z,15.20
2018-05-26T02:41:09.616Z,15.10
2018-05-26T02:43:12.975Z,15.10
2018-05-26T02:45:17.134Z,15.10
2018-05-26T02:47:21.123Z,15.10
2018-05-26T02:49:24.759Z,15.10
2018-05-26T02:51:28.124Z,15.10
2018-05-26T02:53:31.489Z,15.10
2018-05-26T02:55:35.655Z,15.10
2018-05-26T02:57:39.038Z,15.10
2018-05-26T02:59:42.456Z,15.20
2018-05-26T03:01:45.819Z,15.10
2018-05-26T03:03:48.709Z,15.20
2018-05-26T03:05:58.486Z,15.20
2018-05-26T03:08:08.331Z,15.20
2018-05-26T03:10:17.305Z,15.10
2018-05-26T03:12:26.155Z,15.10
2018-05-26T03:14:35.299Z,15.20
2018-05-26T03:16:40.167Z,15.10
2018-05-26T03:18:43.529Z,15.10
2018-05-26T03:20:46.911Z,15.10
2018-05-26T03:22:50.268Z,15.10
2018-05-26T03:24:53.685Z,15.10
2018-05-26T03:26:57.803Z,15.10
2018-05-26T03:29:01.161Z,15.00
2018-05-26T03:31:04.558Z,15.10
2018-05-26T03:33:07.892Z,15.00
2018-05-26T03:35:12.051Z,15.00
2018-05-26T03:37:15.407Z,15.00
2018-05-26T03:39:18.769Z,14.90
2018-05-26T03:41:22.935Z,15.00
2018-05-26T03:43:26.297Z,14.90
2018-05-26T03:45:29.794Z,14.90
2018-05-26T03:47:34.122Z,14.90
2018-05-26T03:49:37.474Z,14.90
2018-05-26T03:51:40.878Z,14.90
2018-05-26T03:53:44.218Z,14.80
2018-05-26T03:56:00.180Z,14.70
2018-05-26T03:58:15.245Z,14.70
2018-05-26T04:00:18.612Z,14.70
2018-05-26T04:02:21.980Z,14.70
2018-05-26T04:04:26.093Z,14.70
2018-05-26T04:06:30.249Z,14.70
2018-05-26T04:08:33.619Z,14.70
2018-05-26T04:10:36.990Z,14.80
2018-05-26T04:12:41.119Z,14.80
2018-05-26T04:14:45.341Z,14.80
2018-05-26T04:16:48.737Z,14.90
2018-05-26T04:18:52.098Z,14.90
2018-05-26T04:20:56.235Z,14.90
2018-05-26T04:22:59.628Z,14.90
2018-05-26T04:25:03.016Z,15.00
2018-05-26T04:27:06.411Z,15.00
2018-05-26T04:29:09.770Z,14.90
2018-05-26T04:31:13.164Z,15.00
2018-05-26T04:33:16.516Z,15.00
2018-05-26T04:35:19.876Z,15.00
2018-05-26T04:37:23.291Z,15.00
2018-05-26T04:39:26.638Z,15.00
2018-05-26T04:41:30.802Z,15.00
2018-05-26T04:43:34.171Z,15.00
2018-05-26T04:45:37.534Z,15.00
2018-05-26T04:47:40.929Z,15.00
2018-05-26T04:49:45.038Z,15.10
2018-05-26T04:51:49.180Z,15.10
2018-05-26T04:53:52.558Z,15.10
2018-05-26T04:55:55.945Z,15.10
2018-05-26T04:57:59.336Z,15.20
2018-05-26T05:00:02.693Z,15.20
2018-05-26T05:02:06.871Z,15.30
2018-05-26T05:04:10.234Z,15.30
2018-05-26T05:06:13.622Z,15.30
2018-05-26T05:08:17.047Z,15.30
2018-05-26T05:10:20.467Z,15.20
2018-05-26T05:12:23.834Z,15.20
2018-05-26T05:14:27.429Z,15.10
2018-05-26T05:16:31.147Z,15.10
2018-05-26T05:18:34.571Z,15.20
2018-05-26T05:20:37.925Z,15.20
2018-05-26T05:22:41.331Z,15.30
2018-05-26T05:24:44.674Z,15.30
2018-05-26T05:26:48.148Z,15.40
2018-05-26T05:28:51.567Z,15.50
2018-05-26T05:30:54.926Z,15.50
2018-05-26T05:32:58.415Z,15.60
2018-05-26T05:35:02.575Z,15.70
2018-05-26T05:37:06.100Z,15.70
2018-05-26T05:39:09.468Z,15.70
2018-05-26T05:41:13.060Z,15.80
2018-05-26T05:43:16.481Z,16.00
2018-05-26T05:45:21.147Z,16.10
2018-05-26T05:47:24.734Z,16.30
2018-05-26T05:49:28.242Z,16.40
2018-05-26T05:51:31.608Z,16.60
2018-05-26T05:53:35.022Z,16.60
2018-05-26T05:55:38.395Z,16.80
2018-05-26T05:57:41.793Z,16.80
2018-05-26T05:59:45.898Z,17.00
2018-05-26T06:01:50.011Z,17.10
2018-05-26T06:03:53.450Z,17.10
2018-05-26T06:05:58.145Z,17.30
2018-05-26T06:08:01.524Z,17.40
2018-05-26T06:10:04.865Z,17.50
2018-05-26T06:12:08.221Z,17.50
2018-05-26T06:14:11.605Z,17.60
2018-05-26T06:16:14.966Z,17.60
2018-05-26T06:18:19.156Z,17.50
2018-05-26T06:20:22.659Z,17.50
2018-05-26T06:22:27.578Z,17.60
2018-05-26T06:24:31.024Z,17.80
2018-05-26T06:26:34.522Z,17.90
2018-05-26T06:28:37.961Z,18.10
2018-05-26T06:30:41.350Z,18.30
2018-05-26T06:32:44.727Z,18.50
2018-05-26T06:34:48.168Z,18.70
2018-05-26T06:36:52.465Z,18.90
2018-05-26T06:38:56.695Z,19.30
2018-05-26T06:41:00.809Z,19.40
2018-05-26T06:43:05.025Z,19.60
2018-05-26T06:45:09.168Z,19.70
2018-05-26T06:47:12.541Z,19.70
2018-05-26T06:49:16.076Z,19.70
2018-05-26T06:51:20.014Z,19.70
2018-05-26T06:53:23.392Z,19.80
2018-05-26T06:55:26.746Z,19.80
2018-05-26T06:57:30.164Z,19.80
2018-05-26T06:59:33.533Z,19.90
2018-05-26T07:01:37.234Z,20.00
2018-05-26T07:03:40.673Z,20.10
2018-05-26T07:05:44.093Z,20.20
2018-05-26T07:07:48.271Z,20.50
2018-05-26T07:09:51.701Z,20.50
2018-05-26T07:11:55.418Z,20.60
2018-05-26T07:13:58.819Z,20.60
2018-05-26T07:16:02.185Z,20.60
2018-05-26T07:18:05.692Z,20.60
2018-05-26T07:20:09.227Z,20.70
2018-05-26T07:22:13.387Z,21.00
2018-05-26T07:24:16.777Z,21.00
2018-05-26T07:26:21.097Z,21.10
2018-05-26T07:28:24.435Z,21.20
2018-05-26T07:30:27.816Z,21.20
2018-05-26T07:32:31.505Z,21.20
2018-05-26T07:34:34.877Z,21.40
2018-05-26T07:36:38.263Z,21.50
2018-05-26T07:38:41.655Z,21.70
2018-05-26T07:40:46.205Z,21.90
2018-05-26T07:42:49.592Z,22.10
2018-05-26T07:44:53.025Z,22.10
2018-05-26T07:46:56.997Z,22.10
2018-05-26T07:49:01.198Z,22.20
2018-05-26T07:51:04.547Z,22.40
2018-05-26T07:53:08.826Z,22.60
2018-05-26T07:55:12.168Z,22.50
2018-05-26T07:57:16.274Z,22.70
2018-05-26T07:59:20.428Z,22.90
2018-05-26T08:01:23.796Z,22.90
2018-05-26T08:03:27.127Z,22.90
2018-05-26T08:05:30.580Z,22.90
2018-05-26T08:07:33.880Z,22.90
2018-05-26T08:09:37.267Z,22.80
2018-05-26T08:11:40.637Z,22.90
2018-05-26T08:13:47.356Z,23.20
2018-05-26T08:15:51.008Z,23.20
2018-05-26T08:17:55.103Z,23.30
2018-05-26T08:19:58.472Z,23.30
2018-05-26T08:22:01.793Z,23.20
2018-05-26T08:24:05.917Z,23.40
2018-05-26T08:26:09.294Z,23.40
2018-05-26T08:28:13.864Z,23.90
2018-05-26T08:30:17.245Z,23.90
2018-05-26T08:32:20.614Z,23.90
2018-05-26T08:34:23.988Z,23.80
2018-05-26T08:36:27.322Z,24.00
2018-05-26T08:38:30.690Z,24.10
2018-05-26T08:40:34.090Z,24.10
2018-05-26T08:42:37.423Z,24.10
2018-05-26T08:44:40.855Z,24.10
2018-05-26T08:46:44.972Z,24.50
2018-05-26T08:48:48.358Z,24.40
2018-05-26T08:50:52.512Z,24.70
2018-05-26T08:52:55.855Z,24.60
2018-05-26T08:54:59.225Z,24.70
2018-05-26T08:57:02.587Z,24.70
2018-05-26T08:59:05.960Z,24.90
2018-05-26T09:01:09.345Z,24.90
2018-05-26T09:03:12.687Z,24.90
2018-05-26T09:05:16.080Z,25.00
2018-05-26T09:07:19.432Z,25.10
2018-05-26T09:09:22.795Z,25.30
2018-05-26T09:11:27.375Z,25.30
2018-05-26T09:13:30.729Z,25.40
2018-05-26T09:15:34.110Z,25.60
2018-05-26T09:17:38.668Z,25.60
2018-05-26T09:19:42.001Z,25.70
2018-05-26T09:21:46.166Z,25.60
2018-05-26T09:23:49.501Z,25.60
2018-05-26T09:25:53.279Z,25.60
2018-05-26T09:27:56.617Z,25.60
2018-05-26T09:29:59.978Z,25.70
2018-05-26T09:32:03.348Z,25.70
2018-05-26T09:34:06.671Z,25.70
2018-05-26T09:36:10.804Z,26.00
2018-05-26T09:38:14.145Z,26.00
2018-05-26T09:40:17.570Z,26.10
2018-05-26T09:42:20.931Z,26.00
2018-05-26T09:44:24.270Z,25.80
2018-05-26T09:46:27.639Z,25.60
2018-05-26T09:48:31.746Z,25.60
2018-05-26T09:50:35.894Z,25.60
2018-05-26T09:52:39.251Z,25.60
2018-05-26T09:54:42.591Z,25.80
2018-05-26T09:56:46.352Z,26.00
2018-05-26T09:58:50.819Z,26.10
2018-05-26T10:00:54.214Z,26.10
2018-05-26T10:02:57.553Z,26.30
2018-05-26T10:05:01.670Z,26.50
2018-05-26T10:07:05.043Z,26.50
2018-05-26T10:09:08.500Z,26.50
2018-05-26T10:11:11.939Z,26.50
2018-05-26T10:13:15.312Z,26.60
2018-05-26T10:15:18.728Z,26.90
2018-05-26T10:17:22.176Z,26.60
2018-05-26T10:19:25.515Z,26.60
2018-05-26T10:21:28.885Z,26.60
2018-05-26T10:23:33.008Z,26.60
2018-05-26T10:25:37.127Z,26.60
2018-05-26T10:27:40.500Z,26.60
2018-05-26T10:29:44.244Z,26.60
2018-05-26T10:31:47.623Z,26.70
2018-05-26T10:33:50.986Z,26.80
2018-05-26T10:35:54.384Z,26.90
2018-05-26T10:37:58.089Z,26.90
2018-05-26T10:40:01.515Z,26.80
2018-05-26T10:42:04.919Z,26.80
2018-05-26T10:44:08.287Z,26.80
2018-05-26T10:46:24.381Z,26.80
2018-05-26T10:48:27.763Z,26.90
2018-05-26T10:50:31.120Z,26.90
2018-05-26T10:52:34.488Z,27.00
2018-05-26T10:54:37.824Z,27.20
2018-05-26T10:56:41.932Z,27.80
2018-05-26T10:58:46.078Z,28.00
2018-05-26T11:00:49.866Z,28.00
2018-05-26T11:02:53.257Z,28.00
2018-05-26T11:04:56.621Z,28.20
2018-05-26T11:06:59.943Z,28.10
2018-05-26T11:09:03.317Z,28.10
2018-05-26T11:11:07.395Z,28.00
2018-05-26T11:13:10.765Z,28.10
2018-05-26T11:15:14.091Z,28.00
2018-05-26T11:17:18.202Z,27.60
2018-05-26T11:19:22.341Z,27.60
2018-05-26T11:21:25.668Z,27.50
2018-05-26T11:23:29.055Z,27.60
2018-05-26T11:25:32.442Z,27.70
2018-05-26T11:27:37.297Z,27.80
2018-05-26T11:29:40.690Z,28.00
2018-05-26T11:31:46.411Z,28.10
2018-05-26T11:33:49.771Z,28.00
2018-05-26T11:35:53.105Z,28.10
2018-05-26T11:37:57.967Z,28.70
2018-05-26T11:40:02.141Z,29.00
2018-05-26T11:42:07.148Z,29.00
2018-05-26T11:44:10.546Z,29.00
2018-05-26T11:46:14.626Z,28.90
2018-05-26T11:48:17.977Z,28.90
2018-05-26T11:50:21.397Z,28.90
2018-05-26T11:52:24.732Z,28.90
2018-05-26T11:54:28.109Z,28.80
2018-05-26T11:56:31.445Z,28.90
2018-05-26T11:58:34.793Z,29.00
2018-05-26T12:00:38.159Z,28.90
2018-05-26T12:02:42.281Z,28.70
2018-05-26T12:04:45.639Z,28.70
2018-05-26T12:06:48.958Z,28.80
2018-05-26T12:08:52.355Z,29.00
2018-05-26T12:10:55.744Z,29.00
2018-05-26T12:12:59.076Z,29.10
2018-05-26T12:15:02.436Z,29.30
2018-05-26T12:17:05.767Z,29.40
2018-05-26T12:19:09.099Z,29.30
2018-05-26T12:21:13.214Z,29.10
2018-05-26T12:23:17.327Z,28.90
2018-05-26T12:25:20.690Z,28.90
2018-05-26T12:27:24.041Z,28.90
2018-05-26T12:29:28.462Z,29.20
2018-05-26T12:31:31.854Z,29.30
2018-05-26T12:33:35.570Z,29.30
2018-05-26T12:35:38.977Z,29.40
2018-05-26T12:37:42.310Z,29.40
2018-05-26T12:39:45.630Z,29.50
2018-05-26T12:41:51.338Z,29.80
2018-05-26T12:43:55.819Z,30.10
2018-05-26T12:45:59.187Z,30.10
2018-05-26T12:48:02.522Z,30.20
2018-05-26T12:50:06.611Z,30.00
2018-05-26T12:52:10.068Z,30.00
2018-05-26T12:54:14.149Z,29.70
2018-05-26T12:56:19.541Z,30.00
2018-05-26T12:58:22.869Z,29.90
2018-05-26T13:00:26.956Z,29.50
2018-05-26T13:02:30.334Z,29.50
2018-05-26T13:04:33.666Z,29.10
2018-05-26T13:06:37.816Z,29.00
2018-05-26T13:08:41.155Z,29.00
2018-05-26T13:10:44.496Z,29.10
2018-05-26T13:12:47.901Z,29.20
2018-05-26T13:14:51.244Z,29.20
2018-05-26T13:16:54.651Z,29.00
2018-05-26T13:18:57.987Z,29.00
2018-05-26T13:21:02.737Z,29.00
2018-05-26T13:23:06.253Z,29.10
2018-05-26T13:25:09.652Z,29.20
2018-05-26T13:27:14.042Z,29.30
2018-05-26T13:29:17.393Z,29.40
2018-05-26T13:31:20.718Z,29.40
2018-05-26T13:33:24.110Z,29.50
2018-05-26T13:35:27.879Z,29.60
2018-05-26T13:37:31.232Z,29.80
2018-05-26T13:39:34.623Z,30.00
2018-05-26T13:41:37.988Z,30.10
2018-05-26T13:43:41.380Z,30.20
2018-05-26T13:45:44.907Z,30.40
2018-05-26T13:47:48.315Z,30.50
2018-05-26T13:49:51.671Z,30.10
2018-05-26T13:51:55.862Z,29.80
2018-05-26T13:53:59.457Z,29.80
2018-05-26T13:56:02.887Z,29.50
2018-05-26T13:58:07.074Z,29.30
2018-05-26T14:00:11.178Z,29.40
2018-05-26T14:02:15.305Z,29.70
2018-05-26T14:04:18.686Z,29.70
2018-05-26T14:06:22.882Z,29.90
2018-05-26T14:08:26.291Z,29.90
2018-05-26T14:10:30.473Z,29.60
2018-05-26T14:12:34.775Z,29.60
2018-05-26T14:14:38.137Z,29.50
2018-05-26T14:16:41.476Z,29.70
2018-05-26T14:18:44.847Z,29.50
2018-05-26T14:20:48.187Z,29.30
2018-05-26T14:22:52.309Z,29.00
2018-05-26T14:24:55.744Z,29.00
2018-05-26T14:26:59.084Z,29.00
2018-05-26T14:29:02.479Z,28.80
2018-05-26T14:31:05.854Z,28.60
2018-05-26T14:33:09.185Z,28.50
2018-05-26T14:35:12.558Z,28.60
2018-05-26T14:37:15.973Z,28.80
2018-05-26T14:39:19.341Z,28.90
2018-05-26T14:41:22.813Z,28.90
2018-05-26T14:43:26.145Z,29.00
2018-05-26T14:45:29.521Z,29.20
2018-05-26T14:47:34.182Z,29.00
2018-05-26T14:49:37.558Z,29.00
2018-05-26T14:51:40.907Z,29.30
2018-05-26T14:53:44.277Z,29.50
2018-05-26T14:55:47.636Z,29.70
2018-05-26T14:57:50.963Z,29.80
2018-05-26T14:59:54.323Z,29.70
2018-05-26T15:01:57.673Z,29.50
2018-05-26T15:04:01.787Z,29.60
2018-05-26T15:06:06.502Z,29.60
2018-05-26T15:08:10.614Z,30.00
2018-05-26T15:10:13.985Z,29.90
2018-05-26T15:12:17.327Z,29.90
2018-05-26T15:14:20.681Z,30.00
2018-05-26T15:16:24.846Z,30.00
2018-05-26T15:18:28.183Z,30.00
2018-05-26T15:20:31.590Z,29.80
2018-05-26T15:22:35.866Z,29.80
2018-05-26T15:24:39.217Z,30.00
2018-05-26T15:26:43.177Z,30.10
2018-05-26T15:28:46.519Z,30.10
2018-05-26T15:30:49.916Z,29.80
2018-05-26T15:32:54.021Z,29.40
2018-05-26T15:34:57.399Z,29.40
2018-05-26T15:37:00.783Z,29.30
2018-05-26T15:39:04.157Z,29.40
2018-05-26T15:41:08.318Z,29.10
2018-05-26T15:43:12.493Z,29.20
2018-05-26T15:45:16.615Z,28.70
2018-05-26T15:47:19.999Z,28.70
2018-05-26T15:49:24.217Z,28.60
2018-05-26T15:51:27.560Z,28.60
2018-05-26T15:53:30.971Z,28.60
2018-05-26T15:55:34.319Z,28.60
2018-05-26T15:57:38.449Z,28.70
2018-05-26T15:59:41.797Z,28.90
2018-05-26T16:01:45.185Z,28.70
2018-05-26T16:03:49.331Z,28.50
2018-05-26T16:05:52.697Z,28.50
2018-05-26T16:07:56.093Z,28.40
2018-05-26T16:09:59.426Z,28.30
2018-05-26T16:12:02.799Z,28.40
2018-05-26T16:14:07.025Z,28.30
2018-05-26T16:16:10.363Z,28.20
2018-05-26T16:18:13.715Z,28.10
2018-05-26T16:20:17.242Z,28.10
2018-05-26T16:22:21.374Z,27.90
2018-05-26T16:24:24.742Z,27.90
2018-05-26T16:26:28.100Z,27.90
2018-05-26T16:28:31.480Z,27.90
2018-05-26T16:30:34.848Z,27.80
2018-05-26T16:32:39.216Z,27.70
2018-05-26T16:34:42.560Z,27.60
2018-05-26T16:36:45.903Z,27.60
2018-05-26T16:38:49.303Z,27.60
2018-05-26T16:40:53.411Z,27.60
2018-05-26T16:42:56.836Z,27.60
2018-05-26T16:45:00.205Z,27.60
2018-05-26T16:47:03.572Z,27.50
2018-05-26T16:49:07.753Z,27.50
2018-05-26T16:51:11.088Z,27.50
2018-05-26T16:53:14.458Z,27.50
2018-05-26T16:55:18.591Z,27.30
2018-05-26T16:57:23.172Z,27.30
2018-05-26T16:59:26.654Z,27.30
2018-05-26T17:01:30.049Z,27.20
2018-05-26T17:03:33.428Z,27.20
2018-05-26T17:05:36.799Z,27.30
2018-05-26T17:07:40.890Z,27.10
2018-05-26T17:09:46.142Z,27.20
2018-05-26T17:11:49.510Z,27.20
2018-05-26T17:13:53.671Z,27.20
2018-05-26T17:15:57.603Z,27.10
2018-05-26T17:18:01.013Z,27.10
2018-05-26T17:20:04.622Z,27.00
2018-05-26T17:22:07.982Z,27.00
2018-05-26T17:24:11.614Z,26.90
2018-05-26T17:26:15.720Z,26.70
2018-05-26T17:28:19.045Z,26.70
2018-05-26T17:30:22.519Z,26.60
2018-05-26T17:32:26.791Z,26.40
2018-05-26T17:34:30.249Z,26.40
2018-05-26T17:36:33.602Z,26.30
2018-05-26T17:38:37.374Z,26.30
2018-05-26T17:40:40.729Z,26.20
2018-05-26T17:42:44.144Z,26.10
2018-05-26T17:44:47.522Z,26.10
2018-05-26T17:46:51.659Z,26.10
2018-05-26T17:48:55.015Z,26.00
2018-05-26T17:50:58.771Z,25.90
2018-05-26T17:53:02.153Z,25.70
2018-05-26T17:55:05.581Z,25.70
2018-05-26T17:57:09.114Z,25.60
2018-05-26T17:59:12.491Z,25.60
2018-05-26T18:01:15.962Z,25.60
2018-05-26T18:03:20.993Z,25.50
2018-05-26T18:05:24.487Z,25.40
2018-05-26T18:07:28.642Z,25.40
2018-05-26T18:09:32.435Z,25.30
2018-05-26T18:11:36.339Z,25.40
2018-05-26T18:13:39.835Z,25.30
2018-05-26T18:15:43.553Z,25.20
2018-05-26T18:17:47.506Z,25.20
2018-05-26T18:19:50.837Z,25.10
2018-05-26T18:21:54.549Z,25.10
2018-05-26T18:23:58.149Z,25.10
2018-05-26T18:26:02.009Z,25.10
2018-05-26T18:28:05.750Z,25.10
2018-05-26T18:30:10.299Z,24.90
2018-05-26T18:32:13.654Z,24.90
2018-05-26T18:34:17.299Z,24.80
2018-05-26T18:36:21.869Z,24.80
2018-05-26T18:38:25.235Z,24.80
2018-05-26T18:40:29.199Z,24.70
2018-05-26T18:42:32.758Z,24.70
2018-05-26T18:44:36.113Z,24.70
2018-05-26T18:46:39.558Z,24.60
2018-05-26T18:48:42.970Z,24.60
2018-05-26T18:50:47.306Z,24.50
2018-05-26T18:52:51.517Z,24.40
2018-05-26T18:54:55.631Z,24.40
2018-05-26T18:56:59.768Z,24.30
2018-05-26T18:59:03.144Z,24.30
2018-05-26T19:01:07.270Z,24.30
2018-05-26T19:03:10.622Z,24.20
2018-05-26T19:05:14.362Z,24.20
2018-05-26T19:07:17.759Z,24.10
2018-05-26T19:09:21.361Z,24.10
2018-05-26T19:11:24.757Z,24.10
2018-05-26T19:13:28.405Z,24.10
2018-05-26T19:15:31.768Z,24.10
2018-05-26T19:17:35.141Z,24.10
2018-05-26T19:19:38.530Z,24.10
2018-05-26T19:21:44.055Z,24.10
2018-05-26T19:23:47.490Z,24.10
2018-05-26T19:25:50.843Z,24.10
2018-05-26T19:27:54.307Z,24.10
2018-05-26T19:29:58.414Z,24.10
2018-05-26T19:32:01.858Z,24.00
2018-05-26T19:34:05.364Z,24.10
2018-05-26T19:36:10.380Z,24.00
2018-05-26T19:38:15.035Z,24.00
2018-05-26T19:40:18.387Z,23.90
2018-05-26T19:42:21.777Z,23.90
2018-05-26T19:44:25.104Z,23.90
2018-05-26T19:46:29.298Z,23.90
2018-05-26T19:48:32.723Z,23.80
2018-05-26T19:50:36.157Z,23.80
2018-05-26T19:52:40.523Z,23.80
2018-05-26T19:54:44.184Z,23.80
2018-05-26T19:56:47.594Z,23.80
2018-05-26T19:58:50.998Z,23.80
2018-05-26T20:00:54.357Z,23.80
2018-05-26T20:02:57.749Z,23.70
2018-05-26T20:05:01.130Z,23.70
2018-05-26T20:07:04.517Z,23.60
2018-05-26T20:09:07.914Z,23.60
2018-05-26T20:11:11.378Z,23.60
2018-05-26T20:13:14.974Z,23.50
2018-05-26T20:15:19.469Z,23.50
2018-05-26T20:17:22.871Z,23.50
2018-05-26T20:19:27.113Z,23.30
2018-05-26T20:21:30.574Z,23.30
2018-05-26T20:23:33.969Z,23.30
2018-05-26T20:25:37.397Z,23.30
2018-05-26T20:27:40.784Z,23.20
2018-05-26T20:29:44.196Z,23.20
2018-05-26T20:31:47.914Z,23.20
2018-05-26T20:33:51.318Z,23.20
2018-05-26T20:35:54.718Z,23.10
2018-05-26T20:37:58.406Z,23.10
2018-05-26T20:40:01.782Z,23.10
2018-05-26T20:42:05.189Z,23.10
2018-05-26T20:44:08.592Z,23.00
2018-05-26T20:46:11.917Z,23.10
2018-05-26T20:48:15.278Z,23.00
2018-05-26T20:50:18.643Z,23.00
2018-05-26T20:52:22.011Z,23.00
2018-05-26T20:54:26.334Z,22.90
2018-05-26T20:56:29.833Z,22.90
2018-05-26T20:58:33.257Z,22.80
2018-05-26T21:00:36.641Z,22.80
2018-05-26T21:02:40.090Z,22.70
2018-05-26T21:04:43.529Z,22.70
2018-05-26T21:06:46.893Z,22.60
2018-05-26T21:08:50.288Z,22.50
2018-05-26T21:10:53.810Z,22.30
2018-05-26T21:12:57.273Z,22.10
2018-05-26T21:15:00.648Z,22.10
2018-05-26T21:17:04.035Z,22.00
2018-05-26T21:19:08.150Z,22.00
2018-05-26T21:21:12.417Z,22.00
2018-05-26T21:23:15.790Z,21.90
2018-05-26T21:25:19.173Z,21.90
2018-05-26T21:27:22.538Z,22.00
2018-05-26T21:29:25.918Z,21.90
2018-05-26T21:31:29.298Z,21.90
2018-05-26T21:33:32.659Z,21.90
2018-05-26T21:35:36.034Z,21.90
2018-05-26T21:37:39.376Z,21.90
2018-05-26T21:39:42.744Z,21.80
2018-05-26T21:41:46.124Z,21.90
2018-05-26T21:43:49.478Z,21.90
2018-05-26T21:45:53.618Z,21.90
2018-05-26T21:47:56.983Z,21.80
2018-05-26T21:50:01.106Z,21.80
2018-05-26T21:52:04.530Z,21.80
2018-05-26T21:54:07.905Z,21.80
2018-05-26T21:56:11.272Z,21.80
2018-05-26T21:58:14.643Z,21.70
2018-05-26T22:00:18.005Z,21.70
2018-05-26T22:02:21.387Z,21.70
2018-05-26T22:04:24.740Z,21.70
2018-05-26T22:06:28.106Z,21.60
2018-05-26T22:08:31.439Z,21.60
2018-05-26T22:10:34.805Z,21.50
2018-05-26T22:12:38.214Z,21.50
2018-05-26T22:14:41.558Z,21.50
2018-05-26T22:16:45.819Z,21.40
2018-05-26T22:18:49.187Z,21.30
2018-05-26T22:20:53.347Z,21.20
2018-05-26T22:22:56.755Z,21.20
2018-05-26T22:25:00.089Z,21.10
2018-05-26T22:27:03.539Z,21.10
2018-05-26T22:29:06.898Z,21.00
2018-05-26T22:31:10.274Z,21.00
2018-05-26T22:33:14.453Z,20.90
2018-05-26T22:35:17.842Z,20.90
2018-05-26T22:37:21.233Z,20.90
2018-05-26T22:39:24.580Z,20.90
2018-05-26T22:41:27.977Z,20.90
2018-05-26T22:43:31.302Z,20.90
2018-05-26T22:45:34.629Z,20.80
2018-05-26T22:47:38.776Z,20.70
2018-05-26T22:49:42.161Z,20.70
2018-05-26T22:51:45.560Z,20.70
2018-05-26T22:53:49.028Z,20.70
2018-05-26T22:55:52.373Z,20.70
2018-05-26T22:57:55.870Z,20.70
2018-05-26T22:59:59.261Z,20.70
2018-05-26T23:02:02.655Z,20.70
2018-05-26T23:04:06.002Z,20.70
2018-05-26T23:06:09.382Z,20.80
2018-05-26T23:08:13.528Z,20.80
2018-05-26T23:10:16.963Z,20.80
2018-05-26T23:12:21.107Z,20.80
2018-05-26T23:14:24.461Z,20.80
2018-05-26T23:16:28.573Z,20.80
2018-05-26T23:18:32.724Z,20.80
2018-05-26T23:20:36.069Z,20.80
2018-05-26T23:22:40.269Z,20.70
2018-05-26T23:24:43.636Z,20.70
2018-05-26T23:26:46.969Z,20.70
2018-05-26T23:28:50.363Z,20.60
2018-05-26T23:30:53.713Z,20.60
2018-05-26T23:32:57.115Z,20.50
2018-05-26T23:35:00.458Z,20.50
2018-05-26T23:37:04.964Z,20.40
2018-05-26T23:39:08.393Z,20.40
2018-05-26T23:41:11.824Z,20.40
2018-05-26T23:43:15.234Z,20.40
2018-05-26T23:45:19.354Z,20.40
2018-05-26T23:47:22.789Z,20.40
2018-05-26T23:49:26.182Z,20.40
2018-05-26T23:51:29.530Z,20.40
2018-05-26T23:53:33.716Z,20.30
2018-05-26T23:55:37.079Z,20.30
2018-05-26T23:57:40.417Z,20.30
2018-05-26T23:59:44.590Z,19.90
